Ocean Outback — 9V8072 — position and weather

sailwx.info

Track history (hours):
 
Tides and Currents Weather Stations Pressure Air Temp Water Temp Dewpoint Dewpoint Depression Visibility Wind Speed Wind Dir Waves Ship Positions

Ocean Outback

Last reported at 2017-Mar-09 17:05 UTC. Time now 2017-Mar-30 00:53 UTC.
Position N 01°15' E 104°06'.
Warning: this ship's position is 20 days out of date.

Length 136 m; draft 6.6 m.

Type: Ship. MMSI: 563745000.

Date/timePositionNaut miles runAvg speedWind from/ knotsBaromVisibWave heightAir tempDewpointWater temp
2017-Mar-09 17:05N 01°15' E 104°06'815.5
2017-Mar-09 16:33N 01°14' E 103°58'8 8.5
2017-Mar-09 15:33N 01°13' E 103°50'1 0.6
2017-Mar-09 14:33N 01°13' E 103°50'0 0.0
2017-Mar-09 13:33N 01°13' E 103°50'0 0.0
2017-Mar-09 12:33N 01°13' E 103°50'0 0.0
2017-Mar-09 11:33N 01°13' E 103°50'0 0.0
2017-Mar-09 10:33N 01°13' E 103°50'1 1.1
2017-Mar-09 09:33N 01°13' E 103°51'1 1.0
2017-Mar-09 08:33N 01°13' E 103°50'0 0.1
2017-Mar-09 07:33N 01°13' E 103°50'0 0.0
2017-Mar-09 06:33N 01°13' E 103°50'0 0.0
2017-Mar-09 05:33N 01°13' E 103°50'0 0.0
2017-Mar-09 04:33N 01°13' E 103°50'0 0.0
2017-Mar-09 03:33N 01°13' E 103°50'0 0.0
2017-Mar-09 02:33N 01°13' E 103°50'0 0.3
2017-Mar-09 01:33N 01°13' E 103°50'6 6.1
2017-Mar-09 00:33N 01°14' E 103°56'33 1.1
2017-Mar-07 18:11N 01°22' E 104°28'2412.2
2017-Mar-07 16:15N 01°15' E 104°05'810.6
2017-Mar-07 15:31N 01°14' E 103°58'8 8.4
2017-Mar-07 14:33N 01°12' E 103°50'1 1.0
2017-Mar-07 13:23N 01°13' E 103°49'0 0.0
2017-Mar-07 12:32N 01°13' E 103°49'0 0.0
2017-Mar-07 11:33N 01°13' E 103°49'0 0.0
2017-Mar-07 10:33N 01°13' E 103°49'4 4.3
2017-Mar-07 09:33N 01°15' E 103°45'6 6.4
2017-Mar-07 08:33N 01°15' E 103°39'3 2.3
2017-Mar-07 07:21N 01°18' E 103°39'0 0.0
2017-Mar-07 06:33N 01°18' E 103°39'0 0.0
2017-Mar-07 05:30N 01°18' E 103°39'0 0.0
2017-Mar-07 04:33N 01°18' E 103°39'0 0.0
2017-Mar-07 03:21N 01°18' E 103°39'0 0.0
2017-Mar-07 02:30N 01°18' E 103°39'0 0.0
2017-Mar-07 01:33N 01°18' E 103°39'0 0.0
2017-Mar-07 00:27N 01°18' E 103°39'0 0.0
2017-Mar-06 23:33N 01°18' E 103°39'0 0.0
2017-Mar-06 22:33N 01°18' E 103°39'0 0.0
2017-Mar-06 21:33N 01°18' E 103°39'0 0.0
2017-Mar-06 20:27N 01°18' E 103°39'0 0.0
2017-Mar-06 19:33N 01°18' E 103°39'0 0.0
2017-Mar-06 18:33N 01°18' E 103°39'0 0.0
2017-Mar-06 17:30N 01°18' E 103°39'0 0.0
2017-Mar-06 16:33N 01°18' E 103°39'0 0.0
2017-Mar-06 15:27N 01°18' E 103°39'0 0.0
2017-Mar-06 14:33N 01°18' E 103°39'0 0.0
2017-Mar-06 13:33N 01°18' E 103°39'0 0.0
2017-Mar-06 12:27N 01°18' E 103°39'0 0.0
2017-Mar-06 11:33N 01°18' E 103°39'0 0.0
2017-Mar-06 10:33N 01°18' E 103°39'0 0.0
2017-Mar-06 09:27N 01°18' E 103°39'0 0.0
2017-Mar-06 08:33N 01°18' E 103°39'0 0.0
2017-Mar-06 07:33N 01°18' E 103°39'0 0.0
2017-Mar-06 06:30N 01°18' E 103°39'0 0.0
2017-Mar-06 05:18N 01°18' E 103°39'0 0.0
2017-Mar-06 04:18N 01°18' E 103°39'0 0.0
2017-Mar-06 03:27N 01°18' E 103°39'0 0.0
2017-Mar-06 02:33N 01°18' E 103°39'0 0.0
2017-Mar-06 01:33N 01°18' E 103°39'0 0.0
2017-Mar-06 00:33N 01°18' E 103°39'0 0.0
2017-Mar-05 23:30N 01°18' E 103°39'0 0.0
2017-Mar-05 22:21N 01°18' E 103°39'0 0.0
2017-Mar-05 21:33N 01°18' E 103°39'0 0.0
2017-Mar-05 20:33N 01°18' E 103°39'0 0.0
2017-Mar-05 19:33N 01°18' E 103°39'0 0.0
2017-Mar-05 18:33N 01°18' E 103°39'0 0.0
2017-Mar-05 17:27N 01°18' E 103°39'0 0.0
2017-Mar-05 16:33N 01°18' E 103°39'0 0.0
2017-Mar-05 15:30N 01°18' E 103°39'0 0.0
2017-Mar-05 14:33N 01°18' E 103°39'0 0.0
2017-Mar-05 13:33N 01°18' E 103°39'0 0.0
2017-Mar-05 12:27N 01°18' E 103°39'0 0.0
2017-Mar-05 11:30N 01°18' E 103°39'0 0.0
2017-Mar-05 10:33N 01°18' E 103°39'0 0.0
2017-Mar-05 09:33N 01°18' E 103°39'0 0.0
2017-Mar-05 08:30N 01°18' E 103°39'0 0.0
2017-Mar-05 07:27N 01°18' E 103°39'0 0.0
2017-Mar-05 06:30N 01°18' E 103°39'0 0.0
2017-Mar-05 05:33N 01°18' E 103°39'0 0.0
2017-Mar-05 04:24N 01°18' E 103°39'0 0.0
2017-Mar-05 03:30N 01°18' E 103°39'0 0.0
2017-Mar-05 02:27N 01°18' E 103°39'0 0.0
2017-Mar-05 01:21N 01°18' E 103°39'0 0.0
2017-Mar-05 00:33N 01°18' E 103°39'0 0.0
2017-Mar-04 23:33N 01°18' E 103°39'0 0.0
2017-Mar-04 22:33N 01°18' E 103°39'0 0.0
2017-Mar-04 21:27N 01°18' E 103°39'0 0.0
2017-Mar-04 20:33N 01°18' E 103°39'0 0.0
2017-Mar-04 19:33N 01°18' E 103°39'0 0.0
2017-Mar-04 18:30N 01°18' E 103°39'0 0.0
2017-Mar-04 17:30N 01°18' E 103°39'0 0.0
2017-Mar-04 16:33N 01°18' E 103°39'0 0.0
2017-Mar-04 15:33N 01°18' E 103°39'0 0.0
2017-Mar-04 14:33N 01°18' E 103°39'0 0.0
2017-Mar-04 13:33N 01°18' E 103°39'0 0.0
2017-Mar-04 12:33N 01°18' E 103°39'0 0.0
2017-Mar-04 11:21N 01°18' E 103°39'0 0.0
2017-Mar-04 10:30N 01°18' E 103°39'0 0.0
2017-Mar-04 09:30N 01°18' E 103°39'0 0.0
2017-Mar-04 08:30N 01°18' E 103°39'0 0.0
2017-Mar-04 07:27N 01°18' E 103°39'0 0.0
2017-Mar-04 06:30N 01°18' E 103°39'0 0.0
2017-Mar-04 05:30N 01°18' E 103°39'0 0.0
2017-Mar-04 04:21N 01°18' E 103°39'0 0.0
2017-Mar-04 03:30N 01°18' E 103°39'0 0.0
2017-Mar-04 02:33N 01°18' E 103°39'0 0.0
2017-Mar-04 01:27N 01°18' E 103°39'0 0.0
2017-Mar-04 00:33N 01°18' E 103°39'0 0.0
2017-Mar-03 23:24N 01°18' E 103°39'0 0.0
2017-Mar-03 22:33N 01°18' E 103°39'0 0.0
2017-Mar-03 21:03N 01°18' E 103°39'0 0.0
2017-Mar-03 20:33N 01°18' E 103°39'0 0.0
2017-Mar-03 19:30N 01°18' E 103°39'0 0.0
2017-Mar-03 18:27N 01°18' E 103°39'0 0.0
2017-Mar-03 17:33N 01°18' E 103°39'0 0.0
2017-Mar-03 16:30N 01°18' E 103°39'0 0.0
2017-Mar-03 15:33N 01°18' E 103°39'0 0.0
2017-Mar-03 14:27N 01°18' E 103°39'0 0.0
2017-Mar-03 13:33N 01°18' E 103°39'0 0.0
2017-Mar-03 12:27N 01°18' E 103°39'0 0.0
2017-Mar-03 11:33N 01°18' E 103°39'0 0.0
2017-Mar-03 10:33N 01°18' E 103°39'0 0.0
2017-Mar-03 09:33N 01°18' E 103°39'0 0.0
2017-Mar-03 08:33N 01°18' E 103°39'0 0.0
2017-Mar-03 07:27N 01°18' E 103°39'0 0.0
2017-Mar-03 06:30N 01°18' E 103°39'0 0.0
2017-Mar-03 05:33N 01°18' E 103°39'0 0.0
2017-Mar-03 04:33N 01°18' E 103°39'0 0.0
2017-Mar-03 03:33N 01°18' E 103°39'0 0.0
2017-Mar-03 02:33N 01°18' E 103°39'0 0.0
2017-Mar-03 01:33N 01°18' E 103°39'0 0.0
2017-Mar-03 00:27N 01°18' E 103°39'0 0.0
2017-Mar-02 23:30N 01°18' E 103°39'0 0.0
2017-Mar-02 22:33N 01°18' E 103°39'0 0.0
2017-Mar-02 21:27N 01°18' E 103°39'0 0.0
2017-Mar-02 20:30N 01°18' E 103°39'0 0.0
2017-Mar-02 19:33N 01°18' E 103°39'0 0.0
2017-Mar-02 18:33N 01°18' E 103°39'0 0.0
2017-Mar-02 17:27N 01°18' E 103°39'0 0.0
2017-Mar-02 16:33N 01°18' E 103°39'0 0.0
2017-Mar-02 15:30N 01°18' E 103°39'0 0.0
2017-Mar-02 14:33N 01°18' E 103°39'0 0.0
2017-Mar-02 13:27N 01°18' E 103°39'0 0.0
2017-Mar-02 12:33N 01°18' E 103°39'0 0.0
2017-Mar-02 11:30N 01°18' E 103°39'0 0.0
2017-Mar-02 10:33N 01°18' E 103°39'0 0.0
2017-Mar-02 09:15N 01°18' E 103°39'0 0.0
2017-Mar-02 08:33N 01°18' E 103°39'0 0.0
2017-Mar-02 07:27N 01°18' E 103°39'0 0.0
2017-Mar-02 06:33N 01°18' E 103°39'0 0.0
2017-Mar-02 05:33N 01°18' E 103°39'0 0.0
2017-Mar-02 04:30N 01°18' E 103°39'0 0.0
2017-Mar-02 03:33N 01°18' E 103°39'0 0.0
2017-Mar-02 02:33N 01°18' E 103°39'0 0.0
2017-Mar-02 01:33N 01°18' E 103°39'0 0.0
2017-Mar-02 00:33N 01°18' E 103°39'0 0.0
2017-Mar-01 23:27N 01°18' E 103°39'0 0.0
2017-Mar-01 22:27N 01°18' E 103°39'0 0.0
2017-Mar-01 21:33N 01°18' E 103°39'0 0.0
2017-Mar-01 20:33N 01°18' E 103°39'0 0.0
2017-Mar-01 19:33N 01°18' E 103°39'0 0.0
2017-Mar-01 18:33N 01°18' E 103°39'0 0.0
2017-Mar-01 17:30N 01°18' E 103°39'0 0.0
2017-Mar-01 16:33N 01°18' E 103°39'0 0.0
2017-Mar-01 15:33N 01°18' E 103°39'0 0.0
2017-Mar-01 14:30N 01°18' E 103°39'0 0.0
2017-Mar-01 13:33N 01°18' E 103°39'0 0.0
2017-Mar-01 12:24N 01°18' E 103°39'0 0.0
2017-Mar-01 11:30N 01°18' E 103°39'0 0.0
2017-Mar-01 10:27N 01°18' E 103°39'0 0.0
2017-Mar-01 09:33N 01°18' E 103°39'0 0.0
2017-Mar-01 08:33N 01°18' E 103°39'0 0.0
2017-Mar-01 07:30N 01°18' E 103°39'0 0.0
2017-Mar-01 06:33N 01°18' E 103°39'0 0.0
2017-Mar-01 05:30N 01°18' E 103°39'0 0.0
2017-Mar-01 04:27N 01°18' E 103°39'0 0.0
2017-Mar-01 03:33N 01°18' E 103°39'0 0.0
2017-Mar-01 02:33N 01°18' E 103°39'0 0.0
2017-Mar-01 01:33N 01°18' E 103°39'0 0.0
2017-Mar-01 00:33N 01°18' E 103°39'0 0.0
2017-Feb-28 23:24N 01°18' E 103°39'0 0.0
2017-Feb-28 22:33N 01°18' E 103°39'0 0.0
2017-Feb-28 21:30N 01°18' E 103°39'0 0.0
2017-Feb-28 20:33N 01°18' E 103°39'0 0.0
2017-Feb-28 19:33N 01°18' E 103°39'0 0.0
2017-Feb-28 18:33N 01°18' E 103°39'0 0.0
2017-Feb-28 17:33N 01°18' E 103°39'0 0.0
2017-Feb-28 16:30N 01°18' E 103°39'0 0.0
2017-Feb-28 15:33N 01°18' E 103°39'0 0.0
2017-Feb-28 14:27N 01°18' E 103°39'0 0.0
2017-Feb-28 13:30N 01°18' E 103°39'0 0.0
2017-Feb-28 12:30N 01°18' E 103°39'0 0.0
2017-Feb-28 11:27N 01°18' E 103°39'0 0.0
2017-Feb-28 10:33N 01°18' E 103°39'0 0.0
2017-Feb-28 09:30N 01°18' E 103°39'0 0.0
2017-Feb-28 08:30N 01°18' E 103°39'0 0.0
2017-Feb-28 07:33N 01°18' E 103°39'0 0.0
2017-Feb-28 06:24N 01°18' E 103°39'0 0.0
2017-Feb-28 05:33N 01°18' E 103°39'0 0.0
2017-Feb-28 04:33N 01°18' E 103°39'0 0.0
2017-Feb-28 03:27N 01°18' E 103°39'0 0.0
2017-Feb-28 02:33N 01°18' E 103°39'0 0.0
2017-Feb-28 01:30N 01°18' E 103°39'0 0.0
2017-Feb-28 00:33N 01°18' E 103°39'0 0.0
2017-Feb-27 23:33N 01°18' E 103°39'0 0.0
2017-Feb-27 22:33N 01°18' E 103°39'0 0.0
2017-Feb-27 21:30N 01°18' E 103°39'0 0.0
2017-Feb-27 20:33N 01°18' E 103°39'0 0.0
2017-Feb-27 19:27N 01°18' E 103°39'0 0.0
2017-Feb-27 18:30N 01°18' E 103°39'0 0.0
2017-Feb-27 17:33N 01°18' E 103°39'  
Track history (hours):
 
Tides and Currents Weather Stations Pressure Air Temp Water Temp Dewpoint Dewpoint Depression Visibility Wind Speed Wind Dir Waves Ship Positions

Ocean Outback

Last reported at 2017-Mar-09 17:05 UTC. Time now 2017-Mar-30 00:53 UTC.
Position N 01°15' E 104°06'.
Warning: this ship's position is 20 days out of date.

Length 136 m; draft 6.6 m.

Type: Ship. MMSI: 563745000.

Date/timePositionNaut miles runAvg speedWind from/ knotsBaromVisibWave heightAir tempDewpointWater temp
2017-Mar-09 17:05N 01°15' E 104°06'815.5
2017-Mar-09 16:33N 01°14' E 103°58'8 8.5
2017-Mar-09 15:33N 01°13' E 103°50'1 0.6
2017-Mar-09 14:33N 01°13' E 103°50'0 0.0
2017-Mar-09 13:33N 01°13' E 103°50'0 0.0
2017-Mar-09 12:33N 01°13' E 103°50'0 0.0
2017-Mar-09 11:33N 01°13' E 103°50'0 0.0
2017-Mar-09 10:33N 01°13' E 103°50'1 1.1
2017-Mar-09 09:33N 01°13' E 103°51'1 1.0
2017-Mar-09 08:33N 01°13' E 103°50'0 0.1
2017-Mar-09 07:33N 01°13' E 103°50'0 0.0
2017-Mar-09 06:33N 01°13' E 103°50'0 0.0
2017-Mar-09 05:33N 01°13' E 103°50'0 0.0
2017-Mar-09 04:33N 01°13' E 103°50'0 0.0
2017-Mar-09 03:33N 01°13' E 103°50'0 0.0
2017-Mar-09 02:33N 01°13' E 103°50'0 0.3
2017-Mar-09 01:33N 01°13' E 103°50'6 6.1
2017-Mar-09 00:33N 01°14' E 103°56'33 1.1
2017-Mar-07 18:11N 01°22' E 104°28'2412.2
2017-Mar-07 16:15N 01°15' E 104°05'810.6
2017-Mar-07 15:31N 01°14' E 103°58'8 8.4
2017-Mar-07 14:33N 01°12' E 103°50'1 1.0
2017-Mar-07 13:23N 01°13' E 103°49'0 0.0
2017-Mar-07 12:32N 01°13' E 103°49'0 0.0
2017-Mar-07 11:33N 01°13' E 103°49'0 0.0
2017-Mar-07 10:33N 01°13' E 103°49'4 4.3
2017-Mar-07 09:33N 01°15' E 103°45'6 6.4
2017-Mar-07 08:33N 01°15' E 103°39'3 2.3
2017-Mar-07 07:21N 01°18' E 103°39'0 0.0
2017-Mar-07 06:33N 01°18' E 103°39'0 0.0
2017-Mar-07 05:30N 01°18' E 103°39'0 0.0
2017-Mar-07 04:33N 01°18' E 103°39'0 0.0
2017-Mar-07 03:21N 01°18' E 103°39'0 0.0
2017-Mar-07 02:30N 01°18' E 103°39'0 0.0
2017-Mar-07 01:33N 01°18' E 103°39'0 0.0
2017-Mar-07 00:27N 01°18' E 103°39'0 0.0
2017-Mar-06 23:33N 01°18' E 103°39'0 0.0
2017-Mar-06 22:33N 01°18' E 103°39'0 0.0
2017-Mar-06 21:33N 01°18' E 103°39'0 0.0
2017-Mar-06 20:27N 01°18' E 103°39'0 0.0
2017-Mar-06 19:33N 01°18' E 103°39'0 0.0
2017-Mar-06 18:33N 01°18' E 103°39'0 0.0
2017-Mar-06 17:30N 01°18' E 103°39'0 0.0
2017-Mar-06 16:33N 01°18' E 103°39'0 0.0
2017-Mar-06 15:27N 01°18' E 103°39'0 0.0
2017-Mar-06 14:33N 01°18' E 103°39'0 0.0
2017-Mar-06 13:33N 01°18' E 103°39'0 0.0
2017-Mar-06 12:27N 01°18' E 103°39'0 0.0
2017-Mar-06 11:33N 01°18' E 103°39'0 0.0
2017-Mar-06 10:33N 01°18' E 103°39'0 0.0
2017-Mar-06 09:27N 01°18' E 103°39'0 0.0
2017-Mar-06 08:33N 01°18' E 103°39'0 0.0
2017-Mar-06 07:33N 01°18' E 103°39'0 0.0
2017-Mar-06 06:30N 01°18' E 103°39'0 0.0
2017-Mar-06 05:18N 01°18' E 103°39'0 0.0
2017-Mar-06 04:18N 01°18' E 103°39'0 0.0
2017-Mar-06 03:27N 01°18' E 103°39'0 0.0
2017-Mar-06 02:33N 01°18' E 103°39'0 0.0
2017-Mar-06 01:33N 01°18' E 103°39'0 0.0
2017-Mar-06 00:33N 01°18' E 103°39'0 0.0
2017-Mar-05 23:30N 01°18' E 103°39'0 0.0
2017-Mar-05 22:21N 01°18' E 103°39'0 0.0
2017-Mar-05 21:33N 01°18' E 103°39'0 0.0
2017-Mar-05 20:33N 01°18' E 103°39'0 0.0
2017-Mar-05 19:33N 01°18' E 103°39'0 0.0
2017-Mar-05 18:33N 01°18' E 103°39'0 0.0
2017-Mar-05 17:27N 01°18' E 103°39'0 0.0
2017-Mar-05 16:33N 01°18' E 103°39'0 0.0
2017-Mar-05 15:30N 01°18' E 103°39'0 0.0
2017-Mar-05 14:33N 01°18' E 103°39'0 0.0
2017-Mar-05 13:33N 01°18' E 103°39'0 0.0
2017-Mar-05 12:27N 01°18' E 103°39'0 0.0
2017-Mar-05 11:30N 01°18' E 103°39'0 0.0
2017-Mar-05 10:33N 01°18' E 103°39'0 0.0
2017-Mar-05 09:33N 01°18' E 103°39'0 0.0
2017-Mar-05 08:30N 01°18' E 103°39'0 0.0
2017-Mar-05 07:27N 01°18' E 103°39'0 0.0
2017-Mar-05 06:30N 01°18' E 103°39'0 0.0
2017-Mar-05 05:33N 01°18' E 103°39'0 0.0
2017-Mar-05 04:24N 01°18' E 103°39'0 0.0
2017-Mar-05 03:30N 01°18' E 103°39'0 0.0
2017-Mar-05 02:27N 01°18' E 103°39'0 0.0
2017-Mar-05 01:21N 01°18' E 103°39'0 0.0
2017-Mar-05 00:33N 01°18' E 103°39'0 0.0
2017-Mar-04 23:33N 01°18' E 103°39'0 0.0
2017-Mar-04 22:33N 01°18' E 103°39'0 0.0
2017-Mar-04 21:27N 01°18' E 103°39'0 0.0
2017-Mar-04 20:33N 01°18' E 103°39'0 0.0
2017-Mar-04 19:33N 01°18' E 103°39'0 0.0
2017-Mar-04 18:30N 01°18' E 103°39'0 0.0
2017-Mar-04 17:30N 01°18' E 103°39'0 0.0
2017-Mar-04 16:33N 01°18' E 103°39'0 0.0
2017-Mar-04 15:33N 01°18' E 103°39'0 0.0
2017-Mar-04 14:33N 01°18' E 103°39'0 0.0
2017-Mar-04 13:33N 01°18' E 103°39'0 0.0
2017-Mar-04 12:33N 01°18' E 103°39'0 0.0
2017-Mar-04 11:21N 01°18' E 103°39'0 0.0
2017-Mar-04 10:30N 01°18' E 103°39'0 0.0
2017-Mar-04 09:30N 01°18' E 103°39'0 0.0
2017-Mar-04 08:30N 01°18' E 103°39'0 0.0
2017-Mar-04 07:27N 01°18' E 103°39'0 0.0
2017-Mar-04 06:30N 01°18' E 103°39'0 0.0
2017-Mar-04 05:30N 01°18' E 103°39'0 0.0
2017-Mar-04 04:21N 01°18' E 103°39'0 0.0
2017-Mar-04 03:30N 01°18' E 103°39'0 0.0
2017-Mar-04 02:33N 01°18' E 103°39'0 0.0
2017-Mar-04 01:27N 01°18' E 103°39'0 0.0
2017-Mar-04 00:33N 01°18' E 103°39'0 0.0
2017-Mar-03 23:24N 01°18' E 103°39'0 0.0
2017-Mar-03 22:33N 01°18' E 103°39'0 0.0
2017-Mar-03 21:03N 01°18' E 103°39'0 0.0
2017-Mar-03 20:33N 01°18' E 103°39'0 0.0
2017-Mar-03 19:30N 01°18' E 103°39'0 0.0
2017-Mar-03 18:27N 01°18' E 103°39'0 0.0
2017-Mar-03 17:33N 01°18' E 103°39'0 0.0
2017-Mar-03 16:30N 01°18' E 103°39'0 0.0
2017-Mar-03 15:33N 01°18' E 103°39'0 0.0
2017-Mar-03 14:27N 01°18' E 103°39'0 0.0
2017-Mar-03 13:33N 01°18' E 103°39'0 0.0
2017-Mar-03 12:27N 01°18' E 103°39'0 0.0
2017-Mar-03 11:33N 01°18' E 103°39'0 0.0
2017-Mar-03 10:33N 01°18' E 103°39'0 0.0
2017-Mar-03 09:33N 01°18' E 103°39'0 0.0
2017-Mar-03 08:33N 01°18' E 103°39'0 0.0
2017-Mar-03 07:27N 01°18' E 103°39'0 0.0
2017-Mar-03 06:30N 01°18' E 103°39'0 0.0
2017-Mar-03 05:33N 01°18' E 103°39'0 0.0
2017-Mar-03 04:33N 01°18' E 103°39'0 0.0
2017-Mar-03 03:33N 01°18' E 103°39'0 0.0
2017-Mar-03 02:33N 01°18' E 103°39'0 0.0
2017-Mar-03 01:33N 01°18' E 103°39'0 0.0
2017-Mar-03 00:27N 01°18' E 103°39'0 0.0
2017-Mar-02 23:30N 01°18' E 103°39'0 0.0
2017-Mar-02 22:33N 01°18' E 103°39'0 0.0
2017-Mar-02 21:27N 01°18' E 103°39'0 0.0
2017-Mar-02 20:30N 01°18' E 103°39'0 0.0
2017-Mar-02 19:33N 01°18' E 103°39'0 0.0
2017-Mar-02 18:33N 01°18' E 103°39'0 0.0
2017-Mar-02 17:27N 01°18' E 103°39'0 0.0
2017-Mar-02 16:33N 01°18' E 103°39'0 0.0
2017-Mar-02 15:30N 01°18' E 103°39'0 0.0
2017-Mar-02 14:33N 01°18' E 103°39'0 0.0
2017-Mar-02 13:27N 01°18' E 103°39'0 0.0
2017-Mar-02 12:33N 01°18' E 103°39'0 0.0
2017-Mar-02 11:30N 01°18' E 103°39'0 0.0
2017-Mar-02 10:33N 01°18' E 103°39'0 0.0
2017-Mar-02 09:15N 01°18' E 103°39'0 0.0
2017-Mar-02 08:33N 01°18' E 103°39'0 0.0
2017-Mar-02 07:27N 01°18' E 103°39'0 0.0
2017-Mar-02 06:33N 01°18' E 103°39'0 0.0
2017-Mar-02 05:33N 01°18' E 103°39'0 0.0
2017-Mar-02 04:30N 01°18' E 103°39'0 0.0
2017-Mar-02 03:33N 01°18' E 103°39'0 0.0
2017-Mar-02 02:33N 01°18' E 103°39'0 0.0
2017-Mar-02 01:33N 01°18' E 103°39'0 0.0
2017-Mar-02 00:33N 01°18' E 103°39'0 0.0
2017-Mar-01 23:27N 01°18' E 103°39'0 0.0
2017-Mar-01 22:27N 01°18' E 103°39'0 0.0
2017-Mar-01 21:33N 01°18' E 103°39'0 0.0
2017-Mar-01 20:33N 01°18' E 103°39'0 0.0
2017-Mar-01 19:33N 01°18' E 103°39'0 0.0
2017-Mar-01 18:33N 01°18' E 103°39'0 0.0
2017-Mar-01 17:30N 01°18' E 103°39'0 0.0
2017-Mar-01 16:33N 01°18' E 103°39'0 0.0
2017-Mar-01 15:33N 01°18' E 103°39'0 0.0
2017-Mar-01 14:30N 01°18' E 103°39'0 0.0
2017-Mar-01 13:33N 01°18' E 103°39'0 0.0
2017-Mar-01 12:24N 01°18' E 103°39'0 0.0
2017-Mar-01 11:30N 01°18' E 103°39'0 0.0
2017-Mar-01 10:27N 01°18' E 103°39'0 0.0
2017-Mar-01 09:33N 01°18' E 103°39'0 0.0
2017-Mar-01 08:33N 01°18' E 103°39'0 0.0
2017-Mar-01 07:30N 01°18' E 103°39'0 0.0
2017-Mar-01 06:33N 01°18' E 103°39'0 0.0
2017-Mar-01 05:30N 01°18' E 103°39'0 0.0
2017-Mar-01 04:27N 01°18' E 103°39'0 0.0
2017-Mar-01 03:33N 01°18' E 103°39'0 0.0
2017-Mar-01 02:33N 01°18' E 103°39'0 0.0
2017-Mar-01 01:33N 01°18' E 103°39'0 0.0
2017-Mar-01 00:33N 01°18' E 103°39'0 0.0
2017-Feb-28 23:24N 01°18' E 103°39'0 0.0
2017-Feb-28 22:33N 01°18' E 103°39'0 0.0
2017-Feb-28 21:30N 01°18' E 103°39'0 0.0
2017-Feb-28 20:33N 01°18' E 103°39'0 0.0
2017-Feb-28 19:33N 01°18' E 103°39'0 0.0
2017-Feb-28 18:33N 01°18' E 103°39'0 0.0
2017-Feb-28 17:33N 01°18' E 103°39'0 0.0
2017-Feb-28 16:30N 01°18' E 103°39'0 0.0
2017-Feb-28 15:33N 01°18' E 103°39'0 0.0
2017-Feb-28 14:27N 01°18' E 103°39'0 0.0
2017-Feb-28 13:30N 01°18' E 103°39'0 0.0
2017-Feb-28 12:30N 01°18' E 103°39'0 0.0
2017-Feb-28 11:27N 01°18' E 103°39'0 0.0
2017-Feb-28 10:33N 01°18' E 103°39'0 0.0
2017-Feb-28 09:30N 01°18' E 103°39'0 0.0
2017-Feb-28 08:30N 01°18' E 103°39'0 0.0
2017-Feb-28 07:33N 01°18' E 103°39'0 0.0
2017-Feb-28 06:24N 01°18' E 103°39'0 0.0
2017-Feb-28 05:33N 01°18' E 103°39'0 0.0
2017-Feb-28 04:33N 01°18' E 103°39'0 0.0
2017-Feb-28 03:27N 01°18' E 103°39'0 0.0
2017-Feb-28 02:33N 01°18' E 103°39'0 0.0
2017-Feb-28 01:30N 01°18' E 103°39'0 0.0
2017-Feb-28 00:33N 01°18' E 103°39'0 0.0
2017-Feb-27 23:33N 01°18' E 103°39'0 0.0
2017-Feb-27 22:33N 01°18' E 103°39'0 0.0
2017-Feb-27 21:30N 01°18' E 103°39'0 0.0
2017-Feb-27 20:33N 01°18' E 103°39'0 0.0
2017-Feb-27 19:27N 01°18' E 103°39'0 0.0
2017-Feb-27 18:30N 01°18' E 103°39'0 0.0
2017-Feb-27 17:33N 01°18' E 103°39'  

Dump ship's entire track history